Time;durP1;ratioP1;P1;durP2;ratioP2;P2;SDS_P1;SDS_P2;PMS_P1;PMS_P2;Temp;Humidity;BMP_temperature;BMP_pressure;BME280_temperature;BME280_humidity;BME280_pressure;Samples;Min_cycle;Max_cycle;Signal;HPM_P1;HPM_P2
2022/11/08 00:01:58;;;;;;;12.50;10.83;;;;;10.60;98920.00;;;;16849287;28;20224;-49
2022/11/08 00:18:22;;;;;;;9.80;8.30;;;;;10.50;98914.00;;;;16844079;28;20215;-49
2022/11/08 00:26:24;;;;;;;11.83;8.60;;;;;10.50;98913.00;;;;16847918;28;20723;-49
2022/11/08 00:34:28;;;;;;;11.17;8.03;;;;;10.00;98915.00;;;;16844679;28;20217;-47
2022/11/08 00:42:31;;;;;;;9.70;8.70;;;;;9.90;98907.00;;;;16852301;28;20224;-47
2022/11/08 00:50:37;;;;;;;12.30;9.23;;;;;9.50;98907.00;;;;16854183;28;20357;-47
2022/11/08 00:58:42;;;;;;;10.20;9.30;;;;;9.20;98899.00;;;;16819662;28;20587;-47
2022/11/08 01:06:46;;;;;;;11.33;9.27;;;;;9.90;98900.00;;;;16834726;28;20628;-47
2022/11/08 01:14:49;;;;;;;10.87;9.67;;;;;9.90;98881.00;;;;16863688;28;20755;-49
2022/11/08 01:22:52;;;;;;;10.80;9.80;;;;;9.90;98883.00;;;;16872388;28;20365;-49
2022/11/08 01:30:55;;;;;;;13.43;12.03;;;;;10.00;98868.00;;;;16874002;28;20224;-49
2022/11/08 01:38:59;;;;;;;9.27;8.37;;;;;9.40;98868.00;;;;16853182;28;20248;-49
2022/11/08 01:47:01;;;;;;;10.00;9.03;;;;;9.70;98862.00;;;;16859926;28;20228;-49
2022/11/08 01:55:10;;;;;;;14.27;10.73;;;;;9.50;98847.00;;;;16851883;28;20252;-49
2022/11/08 02:03:16;;;;;;;10.80;8.63;;;;;9.30;98841.00;;;;16852983;28;20684;-49
2022/11/08 02:11:20;;;;;;;10.50;9.40;;;;;9.50;98821.00;;;;16849706;28;20312;-49
2022/11/08 02:19:40;;;;;;;11.30;9.57;;;;;9.50;98817.00;;;;16851390;28;20309;-49
2022/11/08 02:27:43;;;;;;;10.90;9.80;;;;;9.40;98816.00;;;;16852230;28;20304;-49
2022/11/08 02:35:50;;;;;;;13.03;8.90;;;;;8.50;98803.00;;;;16847413;28;20773;-49
2022/11/08 02:43:54;;;;;;;9.43;8.43;;;;;9.00;98786.00;;;;16856806;28;20254;-49
2022/11/08 02:51:56;;;;;;;10.87;9.10;;;;;8.80;98782.00;;;;16845826;28;20235;-49
2022/11/08 03:00:00;;;;;;;9.57;8.60;;;;;8.20;98783.00;;;;16836522;28;20299;-49
2022/11/08 03:08:03;;;;;;;9.90;9.00;;;;;8.60;98768.00;;;;16845475;28;20222;-48
2022/11/08 03:16:07;;;;;;;9.40;8.50;;;;;8.50;98780.00;;;;16845724;28;20287;-49
2022/11/08 03:24:11;;;;;;;11.63;9.50;;;;;9.00;98766.00;;;;16841896;28;20600;-49
2022/11/08 03:32:16;;;;;;;13.53;10.30;;;;;8.40;98779.00;;;;16844806;28;20307;-49
2022/11/08 03:40:19;;;;;;;11.20;10.10;;;;;9.10;98775.00;;;;16845417;28;20353;-49
2022/11/08 03:48:23;;;;;;;10.33;9.13;;;;;8.80;98773.00;;;;16861697;28;20302;-49
2022/11/08 03:56:25;;;;;;;10.97;9.60;;;;;8.90;98770.00;;;;16847644;28;20202;-49
2022/11/08 04:04:29;;;;;;;10.97;9.27;;;;;8.40;98767.00;;;;16845480;28;20735;-49
2022/11/08 04:29:13;;;;;;;13.03;11.03;;;;;8.80;98750.00;;;;16850394;28;20292;-49
2022/11/08 04:37:17;;;;;;;11.70;10.20;;;;;8.90;98750.00;;;;16857723;28;20227;-49
2022/11/08 04:45:20;;;;;;;11.73;10.50;;;;;9.20;98733.00;;;;16876113;28;20292;-49
2022/11/08 04:53:24;;;;;;;12.03;10.50;;;;;9.30;98720.00;;;;16855570;28;20240;-49
2022/11/08 05:01:28;;;;;;;10.90;10.00;;;;;9.40;98710.00;;;;16829723;28;20289;-49
2022/11/08 05:09:32;;;;;;;15.03;10.50;;;;;9.20;98699.00;;;;16809704;28;20853;-49
2022/11/08 05:17:34;;;;;;;11.10;9.43;;;;;9.10;98694.00;;;;16818888;27;20241;-49
2022/11/08 05:25:42;;;;;;;10.50;9.40;;;;;9.10;98690.00;;;;16808607;28;20302;-49
2022/11/08 05:33:45;;;;;;;11.67;10.40;;;;;8.90;98710.00;;;;16812198;28;20223;-49
2022/11/08 05:41:49;;;;;;;12.07;10.10;;;;;9.00;98707.00;;;;16813874;28;20216;-49
2022/11/08 05:49:52;;;;;;;9.80;8.90;;;;;9.00;98703.00;;;;16801574;28;20220;-49
2022/11/08 05:57:56;;;;;;;10.33;9.33;;;;;9.20;98699.00;;;;16814887;28;20699;-49
2022/11/08 06:06:02;;;;;;;9.43;8.43;;;;;8.90;98697.00;;;;16811500;28;20226;-49
2022/11/08 06:14:06;;;;;;;12.00;10.80;;;;;8.70;98708.00;;;;16819823;28;20706;-49
2022/11/08 06:22:09;;;;;;;10.43;9.43;;;;;8.80;98700.00;;;;16824209;28;20224;-49
2022/11/08 06:30:13;;;;;;;13.07;9.50;;;;;8.80;98694.00;;;;16820940;28;20233;-49
2022/11/08 06:38:16;;;;;;;12.83;11.20;;;;;8.40;98700.00;;;;16826091;28;20711;-48
2022/11/08 06:46:20;;;;;;;11.97;9.73;;;;;8.50;98708.00;;;;16848492;28;20227;-49
2022/11/08 06:54:22;;;;;;;14.20;10.63;;;;;8.60;98709.00;;;;16834871;28;20570;-49
2022/11/08 07:02:26;;;;;;;10.53;8.93;;;;;8.60;98699.00;;;;16860265;28;20681;-49
2022/11/08 07:10:30;;;;;;;15.50;11.40;;;;;8.50;98687.00;;;;16860722;28;20246;-48
2022/11/08 07:18:33;;;;;;;14.47;10.93;;;;;8.70;98698.00;;;;16853608;28;20227;-49
2022/11/08 07:26:36;;;;;;;10.93;9.93;;;;;9.10;98706.00;;;;16848466;28;20219;-49
2022/11/08 07:34:40;;;;;;;13.10;9.87;;;;;8.90;98723.00;;;;16856650;28;20257;-49
2022/11/08 07:42:43;;;;;;;11.27;10.00;;;;;9.10;98715.00;;;;16860170;28;20221;-48
2022/11/08 07:50:48;;;;;;;11.03;9.73;;;;;9.00;98708.00;;;;16866190;28;20242;-48
2022/11/08 07:58:52;;;;;;;11.70;10.57;;;;;8.80;98679.00;;;;16849551;28;20223;-49
2022/11/08 08:06:56;;;;;;;14.03;11.43;;;;;9.10;98652.00;;;;16849881;28;20216;-48
2022/11/08 08:14:58;;;;;;;8.20;7.40;;;;;9.30;98649.00;;;;16831978;28;20213;-49
2022/11/08 08:23:02;;;;;;;7.10;6.40;;;;;9.70;98668.00;;;;16828114;28;20249;-49
2022/11/08 08:31:06;;;;;;;10.43;7.97;;;;;10.40;98681.00;;;;16835700;28;20328;-49
2022/11/08 08:39:10;;;;;;;10.27;8.23;;;;;12.10;98670.00;;;;16827581;28;20301;-48
2022/11/08 08:47:13;;;;;;;8.23;7.43;;;;;12.30;98656.00;;;;16830019;28;20220;-49
2022/11/08 08:55:17;;;;;;;8.50;7.40;;;;;12.50;98646.00;;;;16840182;28;20292;-48
2022/11/08 09:03:20;;;;;;;11.40;6.87;;;;;12.60;98654.00;;;;16839124;28;20280;-48
2022/11/08 09:11:24;;;;;;;7.57;6.67;;;;;12.70;98656.00;;;;16842527;28;20364;-49
2022/11/08 09:19:26;;;;;;;7.97;7.27;;;;;12.70;98674.00;;;;16838085;28;20218;-49
2022/11/08 09:27:31;;;;;;;9.67;8.70;;;;;13.70;98666.00;;;;16826604;28;20368;-49
2022/11/08 09:35:33;;;;;;;12.77;8.27;;;;;14.10;98667.00;;;;16827824;28;20703;-49
2022/11/08 09:43:51;;;;;;;10.47;7.50;;;;;15.00;98656.00;;;;16834299;28;20233;-49
2022/11/08 09:51:53;;;;;;;8.83;7.07;;;;;15.10;98669.00;;;;16835127;28;20591;-49
2022/11/08 10:00:01;;;;;;;8.60;7.50;;;;;15.20;98656.00;;;;16850514;28;20215;-49
2022/11/08 10:08:11;;;;;;;9.97;7.43;;;;;15.50;98656.00;;;;16849127;28;20807;-49
2022/11/08 10:16:24;;;;;;;12.70;7.00;;;;;15.50;98646.00;;;;16835125;28;20193;-49
2022/11/08 10:24:35;;;;;;;7.73;6.83;;;;;15.30;98640.00;;;;16807019;28;20307;-49
2022/11/08 10:32:39;;;;;;;8.43;6.53;;;;;15.60;98639.00;;;;16815294;28;20707;-49
2022/11/08 10:40:45;;;;;;;19.47;7.10;;;;;15.60;98636.00;;;;16813751;28;20219;-49
2022/11/08 10:48:49;;;;;;;7.27;5.93;;;;;15.80;98633.00;;;;16802232;28;20225;-49
2022/11/08 10:56:55;;;;;;;12.33;5.90;;;;;16.20;98619.00;;;;16802042;28;20213;-49
2022/11/08 11:05:18;;;;;;;11.77;8.13;;;;;16.30;98609.00;;;;16799510;28;20220;-49
2022/11/08 11:13:22;;;;;;;5.60;5.10;;;;;16.30;98612.00;;;;16793817;28;20229;-49
2022/11/08 11:21:26;;;;;;;6.20;5.47;;;;;16.40;98615.00;;;;16798401;28;20219;-49
2022/11/08 11:29:30;;;;;;;7.50;4.97;;;;;16.70;98605.00;;;;16794595;28;20255;-50
2022/11/08 11:37:39;;;;;;;8.67;5.50;;;;;16.70;98606.00;;;;16815234;28;20201;-49
2022/11/08 11:45:46;;;;;;;7.57;6.60;;;;;16.50;98593.00;;;;16804095;28;20197;-49
2022/11/08 11:53:49;;;;;;;9.57;6.83;;;;;18.20;98572.00;;;;16811574;28;20667;-48
2022/11/08 12:02:08;;;;;;;8.27;6.20;;;;;17.90;98568.00;;;;16824886;28;20228;-49
2022/11/08 12:10:19;;;;;;;10.27;6.47;;;;;18.60;98561.00;;;;16825341;28;20238;-50
2022/11/08 12:18:49;;;;;;;7.50;5.40;;;;;18.80;98569.00;;;;16805892;28;20308;-50
2022/11/08 12:27:00;;;;;;;7.03;5.30;;;;;19.20;98564.00;;;;16791819;28;20315;-49
2022/11/08 12:35:18;;;;;;;9.33;4.60;;;;;20.80;98525.00;;;;16797277;28;20747;-49
2022/11/08 12:43:52;;;;;;;7.80;5.13;;;;;21.40;98526.00;;;;16798665;28;20244;-50
2022/11/08 12:52:06;;;;;;;6.57;4.67;;;;;22.30;98506.00;;;;16793265;28;20858;-50
2022/11/08 13:00:16;;;;;;;3.93;3.30;;;;;21.50;98504.00;;;;16805031;28;20354;-47
2022/11/08 13:08:26;;;;;;;4.73;4.20;;;;;20.70;98510.00;;;;16784723;28;20375;-47
2022/11/08 13:16:38;;;;;;;7.50;4.23;;;;;20.00;98499.00;;;;16802308;28;20216;-47
2022/11/08 13:24:42;;;;;;;6.77;4.73;;;;;19.90;98503.00;;;;16811912;28;20236;-47
2022/11/08 13:32:50;;;;;;;7.70;4.83;;;;;19.20;98496.00;;;;16816882;28;20230;-47
2022/11/08 13:41:10;;;;;;;6.20;4.20;;;;;18.90;98506.00;;;;16809040;28;20303;-49
2022/11/08 13:49:21;;;;;;;5.70;5.03;;;;;19.00;98508.00;;;;16822187;28;20769;-49
2022/11/08 13:57:57;;;;;;;6.37;4.30;;;;;19.00;98507.00;;;;16824049;28;20240;-49
2022/11/08 14:06:06;;;;;;;4.40;3.83;;;;;18.90;98503.00;;;;16820406;28;20200;-50
2022/11/08 14:14:23;;;;;;;7.73;4.27;;;;;18.60;98506.00;;;;16809379;28;20309;-49
2022/11/08 14:22:29;;;;;;;6.97;4.40;;;;;18.40;98490.00;;;;16804714;28;20225;-49
2022/11/08 14:30:32;;;;;;;6.47;3.70;;;;;18.30;98509.00;;;;16825762;28;20236;-49
2022/11/08 14:38:37;;;;;;;6.10;4.20;;;;;18.50;98500.00;;;;16807758;28;20897;-49
2022/11/08 14:46:40;;;;;;;5.73;4.33;;;;;18.70;98508.00;;;;16800457;28;20340;-48
2022/11/08 14:54:45;;;;;;;7.63;4.20;;;;;18.30;98507.00;;;;16816131;28;20327;-49
2022/11/08 15:02:49;;;;;;;6.07;3.90;;;;;18.20;98509.00;;;;16834625;28;20224;-49
2022/11/08 15:10:55;;;;;;;10.80;5.07;;;;;18.40;98501.00;;;;16820378;28;20303;-49
2022/11/08 15:19:19;;;;;;;5.60;4.40;;;;;17.90;98487.00;;;;16803113;28;20247;-49
2022/11/08 15:27:25;;;;;;;7.20;6.50;;;;;17.90;98488.00;;;;16810185;28;20874;-48
2022/11/08 15:35:32;;;;;;;9.70;7.67;;;;;16.80;98496.00;;;;16823420;28;20307;-49
2022/11/08 15:43:40;;;;;;;17.43;15.70;;;;;16.70;98482.00;;;;16820217;28;20251;-48
2022/11/08 15:51:42;;;;;;;10.63;8.20;;;;;16.00;98507.00;;;;16795337;28;20228;-49
2022/11/08 15:59:46;;;;;;;7.33;5.57;;;;;15.60;98505.00;;;;16811181;28;20492;-49
2022/11/08 16:07:50;;;;;;;9.33;6.40;;;;;15.40;98508.00;;;;16817135;28;20743;-49
2022/11/08 16:15:54;;;;;;;13.17;8.90;;;;;14.80;98516.00;;;;16809850;28;20341;-49
2022/11/08 16:23:56;;;;;;;9.10;7.30;;;;;14.70;98519.00;;;;16823485;28;20216;-47
2022/11/08 16:32:00;;;;;;;12.53;7.37;;;;;14.50;98520.00;;;;16805339;28;20729;-46
2022/11/08 16:40:03;;;;;;;9.27;6.07;;;;;14.30;98521.00;;;;16821742;28;20725;-49
2022/11/08 16:48:07;;;;;;;8.13;6.63;;;;;14.50;98519.00;;;;16830920;28;20231;-48
2022/11/08 16:56:10;;;;;;;9.33;8.03;;;;;14.90;98513.00;;;;16833322;28;20226;-48
2022/11/08 17:04:14;;;;;;;8.13;6.30;;;;;14.70;98511.00;;;;16835410;28;20221;-47
2022/11/08 17:12:16;;;;;;;7.23;5.50;;;;;15.40;98492.00;;;;16800160;28;20225;-47
2022/11/08 17:20:20;;;;;;;7.87;5.53;;;;;15.60;98502.00;;;;16804224;28;20303;-45
2022/11/08 17:28:29;;;;;;;7.30;6.50;;;;;15.60;98508.00;;;;16820902;28;20884;-47
2022/11/08 17:36:33;;;;;;;7.73;6.93;;;;;15.80;98517.00;;;;16818105;28;20212;-48
2022/11/08 17:44:35;;;;;;;15.77;6.60;;;;;15.90;98518.00;;;;16803790;28;20597;-47
2022/11/08 17:52:39;;;;;;;11.90;7.60;;;;;15.90;98525.00;;;;16814094;28;20224;-47
2022/11/08 18:00:42;;;;;;;7.03;6.20;;;;;15.80;98526.00;;;;16814901;28;20216;-47
2022/11/08 18:08:46;;;;;;;6.00;5.40;;;;;15.80;98514.00;;;;16807901;28;20228;-46
2022/11/08 18:16:48;;;;;;;6.20;5.30;;;;;15.60;98518.00;;;;16814050;28;20199;-47
2022/11/08 18:24:52;;;;;;;7.80;7.00;;;;;15.50;98517.00;;;;16818942;28;20311;-47
2022/11/08 18:32:55;;;;;;;9.40;7.07;;;;;14.30;98539.00;;;;16811938;28;20232;-46
2022/11/08 18:40:59;;;;;;;10.37;9.30;;;;;13.80;98540.00;;;;16802779;28;20235;-47
2022/11/08 18:49:01;;;;;;;18.00;6.40;;;;;13.10;98553.00;;;;16796776;28;20490;-47
2022/11/08 18:57:05;;;;;;;14.10;8.10;;;;;12.80;98569.00;;;;16790031;28;20457;-47
2022/11/08 19:05:08;;;;;;;10.50;7.27;;;;;12.80;98567.00;;;;16811994;28;20232;-47
2022/11/08 19:13:12;;;;;;;11.07;8.00;;;;;12.50;98579.00;;;;16808441;28;20793;-48
2022/11/08 19:21:17;;;;;;;11.27;9.20;;;;;12.90;98575.00;;;;16797404;28;20224;-47
2022/11/08 19:29:21;;;;;;;12.33;11.00;;;;;12.90;98561.00;;;;16814887;28;20304;-47
2022/11/08 19:37:24;;;;;;;9.00;7.50;;;;;12.80;98554.00;;;;16813456;28;20264;-48
2022/11/08 19:45:27;;;;;;;10.03;9.03;;;;;12.90;98538.00;;;;16820596;28;20698;-47
2022/11/08 19:53:30;;;;;;;11.80;9.40;;;;;12.80;98534.00;;;;16813878;28;20361;-47
2022/11/08 20:01:37;;;;;;;12.60;8.73;;;;;13.40;98536.00;;;;16818942;28;20224;-47
2022/11/08 20:09:40;;;;;;;10.50;8.70;;;;;13.00;98544.00;;;;16808831;28;20230;-47
2022/11/08 20:17:43;;;;;;;9.10;8.20;;;;;13.80;98549.00;;;;16819712;28;20302;-48
2022/11/08 20:25:46;;;;;;;10.93;8.00;;;;;14.40;98552.00;;;;16813057;28;20346;-47
2022/11/08 20:33:52;;;;;;;8.67;7.67;;;;;14.70;98550.00;;;;16821491;28;20267;-48
2022/11/08 20:41:55;;;;;;;13.00;9.43;;;;;15.20;98548.00;;;;16817504;28;20699;-48
2022/11/08 20:49:59;;;;;;;10.57;9.40;;;;;14.30;98551.00;;;;16818926;28;20281;-47
2022/11/08 20:58:02;;;;;;;12.07;8.60;;;;;14.30;98546.00;;;;16806904;28;20221;-47
2022/11/08 21:06:07;;;;;;;8.93;8.03;;;;;14.40;98556.00;;;;16807744;28;20254;-48
2022/11/08 21:14:09;;;;;;;19.73;12.37;;;;;14.40;98558.00;;;;16800787;28;20225;-48
2022/11/08 21:22:16;;;;;;;9.10;7.87;;;;;14.40;98542.00;;;;16824918;28;20221;-47
2022/11/08 21:30:19;;;;;;;11.33;8.30;;;;;14.20;98520.00;;;;16816184;28;20239;-48
2022/11/08 21:38:23;;;;;;;11.37;8.60;;;;;14.40;98538.00;;;;16818904;28;20264;-47
2022/11/08 21:46:27;;;;;;;11.00;8.43;;;;;13.50;98543.00;;;;16803795;28;20546;-47
2022/11/08 21:54:30;;;;;;;9.53;8.13;;;;;13.20;98551.00;;;;16796191;28;20344;-47
2022/11/08 22:02:33;;;;;;;11.07;8.90;;;;;13.10;98573.00;;;;16794646;28;20230;-48
2022/11/08 22:10:37;;;;;;;10.73;9.47;;;;;13.00;98566.00;;;;16793501;28;20227;-48
2022/11/08 22:18:39;;;;;;;9.20;8.30;;;;;12.40;98565.00;;;;16810102;28;20297;-47
2022/11/08 22:26:44;;;;;;;8.10;7.30;;;;;11.80;98589.00;;;;16799150;28;20683;-47
2022/11/08 22:34:46;;;;;;;9.97;8.67;;;;;12.60;98582.00;;;;16797528;28;20231;-48
2022/11/08 22:42:50;;;;;;;8.83;7.90;;;;;12.20;98593.00;;;;16728823;22;20598;-47
2022/11/08 22:50:52;;;;;;;8.70;7.80;;;;;13.10;98583.00;;;;16650780;28;20304;-47
2022/11/08 22:58:56;;;;;;;10.60;9.00;;;;;12.10;98560.00;;;;16653069;28;20273;-47
2022/11/08 23:06:59;;;;;;;11.37;7.67;;;;;11.90;98558.00;;;;16643399;28;20823;-47
2022/11/08 23:31:44;;;;;;;10.07;8.77;;;;;12.30;98537.00;;;;16646781;28;20902;-47
2022/11/08 23:48:09;;;;;;;11.30;9.30;;;;;13.50;98537.00;;;;16645376;28;20222;-47
2022/11/08 23:56:19;;;;;;;9.87;8.80;;;;;13.70;98543.00;;;;16646894;28;20198;-47
